Time;durP1;ratioP1;P1;durP2;ratioP2;P2;SDS_P1;SDS_P2;PMS_P1;PMS_P2;Temp;Humidity;BMP_temperature;BMP_pressure;BME280_temperature;BME280_humidity;BME280_pressure;Samples;Min_cycle;Max_cycle;Signal;HPM_P1;HPM_P2
2023/07/30 00:01:50;;;;;;;13.88;4.05;;;15.00;99.90;;;;;;5112999;28;20546;-73
2023/07/30 00:04:16;;;;;;;15.05;3.92;;;15.00;99.90;;;;;;5113502;28;20098;-75
2023/07/30 00:06:41;;;;;;;14.82;3.42;;;15.00;99.90;;;;;;5113209;28;20418;-73
2023/07/30 00:09:07;;;;;;;14.27;3.63;;;14.90;99.90;;;;;;5079178;28;20047;-73
2023/07/30 00:11:33;;;;;;;13.57;3.30;;;14.90;99.90;;;;;;5119519;27;20051;-73
2023/07/30 00:13:58;;;;;;;17.13;3.75;;;14.80;99.90;;;;;;5134465;27;20102;-74
2023/07/30 00:16:26;;;;;;;13.40;3.80;;;14.80;99.90;;;;;;5134575;27;20106;-72
2023/07/30 00:18:52;;;;;;;14.40;3.45;;;14.80;99.90;;;;;;5099507;28;20047;-73
2023/07/30 00:21:17;;;;;;;14.27;3.60;;;14.80;99.90;;;;;;5116007;28;20356;-73
2023/07/30 00:23:43;;;;;;;17.42;4.68;;;14.70;99.90;;;;;;5116123;28;20483;-73
2023/07/30 00:26:09;;;;;;;17.42;3.67;;;14.80;99.90;;;;;;5116366;28;20039;-72
2023/07/30 00:28:34;;;;;;;14.65;3.20;;;14.70;99.90;;;;;;5115906;28;20039;-73
2023/07/30 00:31:00;;;;;;;16.83;3.53;;;14.70;99.90;;;;;;5116054;28;20088;-71
2023/07/30 00:33:26;;;;;;;17.15;3.78;;;14.70;99.90;;;;;;5150685;27;20425;-73
2023/07/30 00:35:52;;;;;;;15.02;3.38;;;14.60;99.90;;;;;;5116314;28;20045;-72
2023/07/30 00:38:18;;;;;;;16.98;3.65;;;14.60;99.90;;;;;;5116166;28;20041;-72
2023/07/30 00:40:44;;;;;;;19.03;3.77;;;14.60;99.90;;;;;;5099761;28;20038;-73
2023/07/30 00:43:10;;;;;;;13.57;3.35;;;14.60;99.90;;;;;;5133546;28;20467;-73
2023/07/30 00:45:37;;;;;;;13.63;3.63;;;14.60;99.90;;;;;;5116281;28;20078;-72
2023/07/30 00:48:04;;;;;;;11.95;4.03;;;14.60;99.90;;;;;;5134159;28;20078;-73
2023/07/30 00:50:30;;;;;;;15.32;3.17;;;14.50;99.90;;;;;;5134209;28;20043;-72
2023/07/30 00:52:56;;;;;;;16.08;3.05;;;14.50;99.90;;;;;;5116082;28;20129;-72
2023/07/30 00:55:22;;;;;;;17.85;3.05;;;14.50;99.90;;;;;;5116645;28;20362;-73
2023/07/30 00:57:48;;;;;;;15.23;3.50;;;14.50;99.90;;;;;;5116812;28;20035;-72
2023/07/30 01:00:14;;;;;;;15.30;2.97;;;14.50;99.90;;;;;;5099010;28;20479;-72
2023/07/30 01:02:40;;;;;;;20.02;3.63;;;14.40;99.90;;;;;;5134509;28;20075;-72
2023/07/30 01:05:06;;;;;;;12.13;3.40;;;14.40;99.90;;;;;;5134026;28;20041;-73
2023/07/30 01:07:32;;;;;;;13.97;3.30;;;14.40;99.90;;;;;;5116510;28;20047;-72
2023/07/30 01:09:59;;;;;;;11.95;2.92;;;14.40;99.90;;;;;;5116039;28;20038;-73
2023/07/30 01:12:25;;;;;;;;;;;14.40;99.90;;;;;;5134560;28;20043;-71
2023/07/30 01:14:52;;;;;;;12.48;2.90;;;14.30;99.90;;;;;;5150264;27;20002;-73
2023/07/30 01:17:18;;;;;;;14.38;3.00;;;14.30;99.90;;;;;;5099812;28;20039;-72
2023/07/30 01:19:44;;;;;;;16.20;2.97;;;14.30;99.90;;;;;;5133984;28;20120;-73
2023/07/30 01:22:10;;;;;;;14.80;3.58;;;14.30;99.90;;;;;;5116181;28;20118;-73
2023/07/30 01:24:35;;;;;;;16.45;3.35;;;14.30;99.90;;;;;;5133619;28;20413;-72
2023/07/30 01:27:07;;;;;;;19.05;3.35;;;14.30;99.90;;;;;;5099246;28;20046;-72
2023/07/30 01:29:37;;;;;;;15.68;2.95;;;14.30;99.90;;;;;;5132808;28;20043;-72
2023/07/30 01:32:06;;;;;;;15.48;3.10;;;14.30;99.90;;;;;;5099360;27;20067;-73
2023/07/30 01:34:35;;;;;;;13.77;3.15;;;14.20;99.90;;;;;;5119368;27;20046;-72
2023/07/30 01:37:01;;;;;;;11.55;3.22;;;14.20;99.90;;;;;;5119202;27;20126;-72
2023/07/30 01:39:28;;;;;;;20.63;4.47;;;14.20;99.90;;;;;;5138651;27;20386;-80
2023/07/30 01:41:54;;;;;;;13.43;4.47;;;14.20;99.90;;;;;;5139587;27;20050;-83
2023/07/30 01:44:21;;;;;;;18.00;4.70;;;14.20;99.90;;;;;;5139017;27;20043;-79
2023/07/30 01:46:46;;;;;;;22.00;5.43;;;14.20;99.90;;;;;;5121364;27;20047;-82
2023/07/30 01:49:12;;;;;;;18.17;6.28;;;14.20;99.90;;;;;;5129227;27;20094;-80
2023/07/30 01:51:38;;;;;;;19.83;7.10;;;14.20;99.90;;;;;;5134306;27;20038;-81
2023/07/30 01:54:03;;;;;;;20.90;7.53;;;14.20;99.90;;;;;;5135905;27;20128;-81
2023/07/30 01:56:29;;;;;;;23.83;7.13;;;14.20;99.90;;;;;;5121779;27;20134;-84
2023/07/30 01:58:55;;;;;;;17.10;5.68;;;14.20;99.90;;;;;;5104200;27;20035;-81
2023/07/30 02:01:21;;;;;;;19.50;4.72;;;14.10;99.90;;;;;;5121930;27;20039;-80
2023/07/30 02:03:46;;;;;;;14.90;4.10;;;14.10;99.90;;;;;;5140328;27;20038;-84
2023/07/30 02:06:12;;;;;;;20.85;3.67;;;14.10;99.90;;;;;;5106693;27;20523;-82
2023/07/30 02:08:38;;;;;;;13.35;3.35;;;14.10;99.90;;;;;;5144971;27;20071;-81
2023/07/30 02:11:04;;;;;;;16.38;2.95;;;14.10;99.90;;;;;;5144212;27;20065;-84
2023/07/30 02:13:30;;;;;;;16.60;3.50;;;14.10;99.90;;;;;;5142295;27;20051;-82
2023/07/30 02:15:55;;;;;;;15.35;3.17;;;14.00;99.90;;;;;;5123723;27;20100;-83
2023/07/30 02:18:21;;;;;;;14.23;2.90;;;14.00;99.90;;;;;;5106912;27;20045;-81
2023/07/30 02:20:47;;;;;;;13.13;2.38;;;14.00;99.90;;;;;;5122423;27;20087;-81
2023/07/30 02:23:16;;;;;;;15.20;2.45;;;14.00;99.90;;;;;;5140965;27;20398;-82
2023/07/30 02:25:42;;;;;;;18.30;2.60;;;14.00;99.90;;;;;;5139382;27;20367;-80
2023/07/30 02:28:09;;;;;;;13.85;2.72;;;14.00;99.90;;;;;;5138571;27;20452;-82
2023/07/30 02:30:35;;;;;;;14.45;2.85;;;14.00;99.90;;;;;;5120334;27;20046;-82
2023/07/30 02:33:01;;;;;;;11.80;2.45;;;14.00;99.90;;;;;;5120870;27;20046;-82
2023/07/30 02:35:26;;;;;;;15.68;2.80;;;14.00;99.90;;;;;;5120497;27;20039;-82
2023/07/30 02:37:52;;;;;;;14.48;2.40;;;14.00;99.90;;;;;;5120192;27;20043;-82
2023/07/30 02:40:18;;;;;;;17.52;2.75;;;14.00;99.90;;;;;;5120275;27;20031;-81
2023/07/30 02:42:44;;;;;;;16.55;2.33;;;14.00;99.90;;;;;;5119903;27;20043;-82
2023/07/30 02:45:10;;;;;;;11.25;2.10;;;14.00;99.90;;;;;;5102294;27;20081;-84
2023/07/30 02:47:35;;;;;;;17.90;2.60;;;14.10;99.90;;;;;;5120165;27;20054;-81
2023/07/30 02:50:03;;;;;;;11.23;2.47;;;14.10;99.90;;;;;;5119919;27;20039;-81
2023/07/30 02:52:29;;;;;;;7.57;1.85;;;14.10;99.90;;;;;;5119773;27;20136;-82
2023/07/30 02:54:54;;;;;;;12.18;2.30;;;14.10;99.90;;;;;;5121996;27;20047;-81
2023/07/30 02:57:20;;;;;;;12.82;2.28;;;14.10;99.90;;;;;;5152385;27;20035;-81
2023/07/30 02:59:46;;;;;;;14.00;2.53;;;14.20;99.90;;;;;;5157996;27;20027;-82
2023/07/30 03:02:11;;;;;;;16.05;2.20;;;14.20;99.90;;;;;;5171184;27;20042;-81
2023/07/30 03:04:37;;;;;;;11.43;2.45;;;14.20;99.90;;;;;;5119766;27;20039;-82
2023/07/30 03:07:03;;;;;;;8.90;2.47;;;14.30;99.90;;;;;;5137484;27;20066;-83
2023/07/30 03:09:29;;;;;;;12.60;2.30;;;14.30;99.90;;;;;;5119623;27;20057;-81
2023/07/30 03:11:55;;;;;;;14.23;2.25;;;14.30;99.90;;;;;;5137944;27;20363;-82
2023/07/30 03:14:20;;;;;;;10.45;2.30;;;14.30;99.90;;;;;;5102473;27;20046;-84
2023/07/30 03:16:49;;;;;;;12.27;2.38;;;14.30;99.90;;;;;;5138668;27;20386;-82
2023/07/30 03:19:15;;;;;;;16.23;2.42;;;14.30;99.90;;;;;;5102782;27;20115;-82
2023/07/30 03:21:40;;;;;;;12.15;2.85;;;14.30;99.90;;;;;;5119111;27;20462;-81
2023/07/30 03:24:06;;;;;;;13.65;2.42;;;14.30;99.90;;;;;;5137363;27;20085;-82
2023/07/30 03:26:32;;;;;;;11.80;2.60;;;14.30;99.90;;;;;;5102467;27;20051;-80
2023/07/30 03:28:58;;;;;;;12.82;2.35;;;14.30;99.90;;;;;;5119911;27;20083;-82
2023/07/30 03:31:23;;;;;;;10.02;2.33;;;14.40;99.90;;;;;;5137468;27;20482;-84
2023/07/30 03:33:49;;;;;;;12.68;2.70;;;14.40;99.90;;;;;;5137101;27;20039;-82
2023/07/30 03:36:15;;;;;;;12.80;2.70;;;14.40;99.90;;;;;;5137297;27;20363;-81
2023/07/30 03:38:42;;;;;;;22.45;2.85;;;14.40;99.90;;;;;;5136885;27;20053;-81
2023/07/30 03:41:08;;;;;;;12.13;2.80;;;14.40;99.90;;;;;;5119423;27;20054;-80
2023/07/30 03:43:34;;;;;;;15.53;2.73;;;14.40;99.90;;;;;;5142007;27;20098;-84
2023/07/30 03:46:00;;;;;;;14.18;2.80;;;14.40;99.90;;;;;;5132136;27;20072;-83
2023/07/30 03:48:27;;;;;;;14.80;3.00;;;14.40;99.90;;;;;;5142309;27;20455;-84
2023/07/30 03:50:56;;;;;;;12.05;2.83;;;14.30;99.90;;;;;;5122702;27;20039;-81
2023/07/30 03:53:22;;;;;;;11.32;2.83;;;14.30;99.90;;;;;;5121784;27;20077;-80
2023/07/30 03:55:48;;;;;;;11.82;2.72;;;14.20;99.90;;;;;;5123418;27;20039;-81
2023/07/30 03:58:14;;;;;;;16.38;3.53;;;14.20;99.90;;;;;;5138697;27;20050;-81
2023/07/30 04:00:40;;;;;;;19.25;3.03;;;14.10;99.90;;;;;;5125464;27;20050;-81
2023/07/30 04:03:06;;;;;;;12.98;3.03;;;14.10;99.90;;;;;;5127305;27;20471;-82
2023/07/30 04:05:31;;;;;;;15.57;2.92;;;14.10;99.90;;;;;;5145071;27;20038;-81
2023/07/30 04:07:57;;;;;;;16.30;3.40;;;14.10;99.90;;;;;;5150241;27;20069;-80
2023/07/30 04:10:23;;;;;;;16.60;3.10;;;14.10;99.90;;;;;;5158148;27;20046;-82
2023/07/30 04:12:49;;;;;;;17.02;3.85;;;14.10;99.90;;;;;;5140071;27;20051;-82
2023/07/30 04:15:15;;;;;;;16.38;2.95;;;14.10;99.90;;;;;;5114560;28;20035;-81
2023/07/30 04:17:41;;;;;;;17.92;3.75;;;14.10;99.90;;;;;;5114714;28;20051;-83
2023/07/30 04:20:09;;;;;;;19.05;3.63;;;14.10;99.90;;;;;;5116421;28;20096;-83
2023/07/30 04:22:36;;;;;;;13.60;3.28;;;14.10;99.90;;;;;;5115945;28;20543;-82
2023/07/30 04:25:01;;;;;;;13.73;3.00;;;14.10;99.90;;;;;;5116181;28;20494;-83
2023/07/30 04:27:27;;;;;;;14.73;3.15;;;14.10;99.90;;;;;;5115846;28;20028;-83
2023/07/30 04:29:53;;;;;;;15.57;3.15;;;14.20;99.90;;;;;;5115849;28;20119;-83
2023/07/30 04:32:18;;;;;;;15.48;3.08;;;14.20;99.90;;;;;;5116481;28;20040;-81
2023/07/30 04:34:44;;;;;;;15.95;4.20;;;14.30;99.90;;;;;;5114025;28;20058;-81
2023/07/30 04:37:10;;;;;;;30.38;3.50;;;14.30;99.90;;;;;;5115321;28;20046;-80
2023/07/30 04:39:36;;;;;;;19.15;3.50;;;14.30;99.90;;;;;;5114449;28;20471;-81
2023/07/30 04:42:02;;;;;;;17.58;3.55;;;14.40;99.90;;;;;;5115433;28;20046;-84
2023/07/30 04:44:28;;;;;;;17.33;3.28;;;14.40;99.90;;;;;;5115038;28;20047;-80
2023/07/30 04:46:54;;;;;;;23.83;3.70;;;14.50;99.90;;;;;;5116277;28;20096;-82
2023/07/30 04:49:20;;;;;;;13.57;3.50;;;14.60;99.90;;;;;;5119637;28;20047;-80
2023/07/30 04:51:46;;;;;;;17.55;3.75;;;14.60;99.90;;;;;;5118421;28;20036;-82
2023/07/30 04:54:11;;;;;;;16.80;3.50;;;14.70;99.90;;;;;;5100997;28;20039;-81
2023/07/30 04:56:37;;;;;;;16.13;3.13;;;14.80;99.90;;;;;;5117964;28;20070;-82
2023/07/30 04:59:03;;;;;;;18.05;3.63;;;14.80;99.90;;;;;;5117218;28;20048;-80
2023/07/30 05:01:30;;;;;;;16.33;3.53;;;15.00;99.90;;;;;;5119161;28;20043;-82
2023/07/30 05:03:56;;;;;;;16.58;3.55;;;15.00;99.90;;;;;;5126460;28;20122;-82
2023/07/30 05:06:23;;;;;;;25.70;3.80;;;15.10;99.90;;;;;;5126376;28;20367;-81
2023/07/30 05:08:48;;;;;;;20.83;3.70;;;15.10;99.90;;;;;;5121533;28;20046;-81
2023/07/30 05:11:14;;;;;;;17.67;3.33;;;15.20;99.90;;;;;;5122112;28;20039;-83
2023/07/30 05:13:40;;;;;;;19.20;4.43;;;15.20;99.90;;;;;;5152374;27;20051;-82
2023/07/30 05:16:06;;;;;;;15.90;3.85;;;15.20;99.90;;;;;;5161500;27;20055;-80
2023/07/30 05:18:32;;;;;;;19.50;3.63;;;15.30;99.90;;;;;;5153613;27;20054;-81
2023/07/30 05:20:58;;;;;;;23.30;3.80;;;15.40;99.90;;;;;;5121812;27;20057;-84
2023/07/30 05:23:23;;;;;;;15.00;3.28;;;15.50;99.90;;;;;;5155971;27;20547;-81
2023/07/30 05:25:49;;;;;;;19.33;3.83;;;15.50;99.90;;;;;;5121501;27;20039;-79
2023/07/30 05:28:15;;;;;;;18.50;4.13;;;15.60;99.90;;;;;;5124673;27;20086;-84
2023/07/30 05:30:41;;;;;;;19.42;3.83;;;15.70;99.90;;;;;;5156869;27;20027;-81
2023/07/30 05:33:07;;;;;;;12.82;3.42;;;15.80;99.90;;;;;;5139919;27;20383;-82
2023/07/30 05:35:33;;;;;;;24.17;3.90;;;15.80;99.90;;;;;;5121487;27;20039;-82
2023/07/30 05:37:59;;;;;;;18.70;3.65;;;15.80;99.90;;;;;;5121105;27;20054;-81
2023/07/30 05:40:24;;;;;;;22.17;4.67;;;15.90;99.90;;;;;;5139901;27;20462;-82
2023/07/30 05:42:50;;;;;;;21.73;4.03;;;16.00;99.90;;;;;;5120908;27;20072;-81
2023/07/30 05:45:16;;;;;;;19.13;4.28;;;16.00;99.90;;;;;;5121541;27;20074;-80
2023/07/30 05:47:42;;;;;;;15.05;3.22;;;16.10;99.90;;;;;;5121126;27;20039;-82
2023/07/30 05:50:08;;;;;;;22.58;4.20;;;16.20;99.90;;;;;;5139530;27;20035;-83
2023/07/30 05:52:34;;;;;;;18.20;3.90;;;16.20;99.90;;;;;;5138925;27;20050;-83
2023/07/30 05:55:00;;;;;;;18.13;3.70;;;16.20;99.90;;;;;;5121387;27;20027;-83
2023/07/30 05:57:26;;;;;;;13.07;3.50;;;16.40;99.90;;;;;;5160997;27;20072;-79
2023/07/30 05:59:51;;;;;;;14.00;4.03;;;16.40;99.90;;;;;;5115614;27;20068;-79
2023/07/30 06:02:18;;;;;;;17.42;4.00;;;16.40;99.90;;;;;;5124065;27;20057;-83
2023/07/30 06:04:45;;;;;;;21.13;3.95;;;16.40;99.90;;;;;;5140321;27;20410;-82
2023/07/30 06:07:11;;;;;;;21.67;4.03;;;16.50;99.90;;;;;;5120533;27;20047;-83
2023/07/30 06:09:37;;;;;;;22.13;4.40;;;16.50;99.90;;;;;;5138271;27;20353;-81
2023/07/30 06:12:03;;;;;;;23.25;3.85;;;16.60;99.90;;;;;;5120604;27;20051;-85
2023/07/30 06:14:29;;;;;;;23.97;3.87;;;16.70;99.90;;;;;;5116772;28;20423;-82
2023/07/30 06:16:54;;;;;;;16.58;3.85;;;16.80;99.90;;;;;;5116905;28;20086;-79
2023/07/30 06:19:20;;;;;;;25.47;5.00;;;16.80;99.90;;;;;;5117907;28;20106;-79
2023/07/30 06:21:46;;;;;;;24.47;4.40;;;16.90;99.90;;;;;;5108158;28;20039;-81
2023/07/30 06:24:12;;;;;;;23.83;4.88;;;17.00;99.90;;;;;;5133738;28;20040;-81
2023/07/30 06:26:38;;;;;;;25.77;4.63;;;17.10;99.90;;;;;;5137069;27;20046;-85
2023/07/30 06:29:03;;;;;;;21.73;4.95;;;17.10;99.90;;;;;;5119630;28;20471;-83
2023/07/30 06:31:29;;;;;;;22.48;4.85;;;17.20;99.90;;;;;;5117557;28;20054;-84
2023/07/30 06:33:55;;;;;;;27.08;4.65;;;17.20;99.90;;;;;;5117191;28;20048;-82
2023/07/30 06:36:21;;;;;;;22.37;3.97;;;17.30;99.90;;;;;;5117077;28;20039;-83
2023/07/30 06:38:47;;;;;;;23.35;4.53;;;17.40;99.90;;;;;;5116158;28;20092;-82
2023/07/30 06:41:13;;;;;;;29.53;5.83;;;17.50;99.90;;;;;;5118327;28;20197;-84
2023/07/30 06:43:39;;;;;;;23.38;4.50;;;17.60;99.90;;;;;;5116511;28;20054;-82
2023/07/30 06:46:05;;;;;;;22.05;4.65;;;17.60;99.90;;;;;;5115650;28;20039;-80
2023/07/30 06:48:31;;;;;;;22.63;4.18;;;17.60;99.90;;;;;;5116197;28;20044;-80
2023/07/30 06:50:57;;;;;;;26.50;4.43;;;17.60;99.90;;;;;;5117350;28;20046;-79
2023/07/30 06:53:23;;;;;;;29.20;4.73;;;17.60;99.90;;;;;;5116627;28;20104;-83
2023/07/30 06:55:48;;;;;;;27.87;4.90;;;17.60;99.90;;;;;;5117517;28;20451;-84
2023/07/30 06:58:14;;;;;;;21.73;5.15;;;17.70;99.90;;;;;;5118578;28;20051;-80
2023/07/30 07:00:40;;;;;;;17.73;4.55;;;17.80;99.90;;;;;;5120288;28;20079;-81
2023/07/30 07:03:06;;;;;;;29.10;4.90;;;17.80;99.90;;;;;;5121078;28;20043;-81
2023/07/30 07:05:31;;;;;;;28.83;5.50;;;17.90;99.90;;;;;;5118699;28;20054;-84
2023/07/30 07:07:57;;;;;;;22.30;5.47;;;17.90;99.90;;;;;;5121142;28;20035;-82
2023/07/30 07:10:23;;;;;;;21.77;5.93;;;17.90;99.90;;;;;;5118720;28;20043;-80
2023/07/30 07:12:49;;;;;;;27.57;6.10;;;18.00;99.90;;;;;;5098117;28;20047;-81
2023/07/30 07:15:15;;;;;;;21.17;6.35;;;18.00;99.90;;;;;;5116100;28;20421;-82
2023/07/30 07:17:41;;;;;;;27.10;6.67;;;18.00;99.90;;;;;;5116085;28;20051;-81
2023/07/30 07:20:07;;;;;;;26.50;6.70;;;17.90;99.90;;;;;;5115757;28;20123;-85
2023/07/30 07:22:34;;;;;;;24.13;6.70;;;17.90;99.90;;;;;;5116012;28;20043;-84
2023/07/30 07:25:00;;;;;;;;;;;17.80;99.90;;;;;;5116726;28;20047;-84
2023/07/30 07:27:25;;;;;;;25.73;6.68;;;17.80;99.90;;;;;;5151832;27;19916;-85
2023/07/30 07:29:52;;;;;;;31.50;6.30;;;17.80;99.90;;;;;;5106339;28;20051;-83
2023/07/30 07:32:18;;;;;;;24.05;6.78;;;17.80;99.90;;;;;;5134686;28;20472;-82
2023/07/30 07:34:48;;;;;;;28.60;7.03;;;17.90;99.90;;;;;;5136324;28;20036;-86
2023/07/30 07:37:15;;;;;;;33.45;6.70;;;17.90;99.90;;;;;;5120329;28;20062;-80
2023/07/30 07:39:44;;;;;;;29.20;6.40;;;17.90;99.90;;;;;;5116331;28;20046;-82
2023/07/30 07:42:10;;;;;;;30.17;6.60;;;18.00;99.90;;;;;;5115696;28;20043;-84
2023/07/30 07:44:36;;;;;;;22.93;5.93;;;18.10;99.90;;;;;;5116120;28;20046;-82
2023/07/30 07:47:02;;;;;;;25.05;6.35;;;18.20;99.90;;;;;;5116494;28;20040;-85
2023/07/30 07:49:28;;;;;;;23.90;6.07;;;18.30;99.90;;;;;;5117243;28;20073;-83
2023/07/30 07:51:53;;;;;;;26.50;7.07;;;18.30;99.90;;;;;;5116750;28;20054;-82
2023/07/30 07:54:19;;;;;;;26.13;7.30;;;18.30;99.90;;;;;;5119644;28;20075;-87
2023/07/30 07:56:45;;;;;;;30.17;7.33;;;18.30;99.90;;;;;;5102107;28;20043;-82
2023/07/30 07:59:10;;;;;;;33.73;6.97;;;18.30;99.90;;;;;;5082544;28;20039;-85
2023/07/30 08:01:36;;;;;;;29.20;7.18;;;18.30;99.90;;;;;;5118951;28;20119;-83
2023/07/30 08:04:05;;;;;;;29.38;7.53;;;18.40;99.90;;;;;;5118488;28;20036;-87
2023/07/30 08:06:34;;;;;;;23.47;6.37;;;18.40;99.90;;;;;;5118056;28;20035;-79
2023/07/30 08:08:59;;;;;;;28.45;6.93;;;18.50;99.90;;;;;;5116613;28;20164;-81
2023/07/30 08:11:25;;;;;;;27.77;5.87;;;18.50;99.90;;;;;;5127322;28;20035;-80
2023/07/30 08:13:51;;;;;;;24.90;5.47;;;18.70;99.90;;;;;;5136137;27;20379;-84
2023/07/30 08:16:17;;;;;;;24.00;5.20;;;18.90;99.90;;;;;;5136619;27;20039;-81
2023/07/30 08:18:42;;;;;;;23.60;4.73;;;19.20;99.90;;;;;;5084828;28;20035;-81
2023/07/30 08:21:08;;;;;;;22.00;4.00;;;19.40;99.90;;;;;;5101613;28;20381;-80
2023/07/30 08:23:34;;;;;;;20.43;4.17;;;19.80;99.90;;;;;;5101790;28;20047;-81
2023/07/30 08:25:59;;;;;;;18.47;5.07;;;20.00;99.90;;;;;;5136069;28;20461;-84
2023/07/30 08:28:25;;;;;;;22.60;4.63;;;20.00;99.90;;;;;;5135125;27;20036;-82
2023/07/30 08:30:51;;;;;;;16.00;4.20;;;20.00;99.90;;;;;;5135809;28;20043;-82
2023/07/30 08:33:17;;;;;;;20.57;4.80;;;20.00;99.90;;;;;;5118365;28;20049;-79
2023/07/30 08:35:42;;;;;;;17.40;4.40;;;20.10;99.90;;;;;;5136364;28;20425;-83
2023/07/30 08:38:08;;;;;;;17.10;3.90;;;20.30;99.90;;;;;;5138906;28;20122;-82
2023/07/30 08:40:34;;;;;;;13.90;4.37;;;20.20;99.90;;;;;;5147910;28;20039;-81
2023/07/30 08:43:02;;;;;;;25.73;4.90;;;20.30;99.90;;;;;;5160581;27;20046;-83
2023/07/30 08:45:27;;;;;;;18.02;4.78;;;20.40;99.90;;;;;;5159042;27;20046;-80
2023/07/30 08:47:53;;;;;;;24.17;5.53;;;20.30;99.90;;;;;;5142248;27;20035;-80
2023/07/30 08:50:19;;;;;;;17.83;5.97;;;20.50;99.90;;;;;;5142463;27;20035;-83
2023/07/30 08:52:48;;;;;;;19.93;5.90;;;20.50;99.90;;;;;;5123655;27;20047;-82
2023/07/30 08:55:14;;;;;;;24.90;6.40;;;20.40;99.90;;;;;;5124892;27;20039;-80
2023/07/30 08:57:43;;;;;;;20.70;5.88;;;20.20;99.90;;;;;;5159532;27;20050;-84
2023/07/30 09:00:10;;;;;;;22.88;5.88;;;20.10;99.90;;;;;;5126049;27;20335;-81
2023/07/30 09:02:41;;;;;;;18.92;5.60;;;19.90;99.90;;;;;;5123452;27;20047;-81
2023/07/30 09:05:07;;;;;;;21.65;5.68;;;20.10;99.90;;;;;;5139268;27;20078;-81
2023/07/30 09:07:33;;;;;;;19.87;5.67;;;20.10;99.90;;;;;;5120785;27;20043;-84
2023/07/30 09:09:59;;;;;;;16.83;5.00;;;20.20;99.90;;;;;;5120819;27;20333;-83
2023/07/30 09:12:32;;;;;;;18.87;5.23;;;20.40;99.90;;;;;;5121540;27;20051;-83
2023/07/30 09:14:59;;;;;;;20.95;4.60;;;20.60;99.90;;;;;;5156149;27;20035;-82
2023/07/30 09:17:25;;;;;;;18.85;5.05;;;20.80;99.90;;;;;;5139571;27;20047;-80
2023/07/30 09:19:52;;;;;;;16.95;4.68;;;20.80;99.90;;;;;;5139231;27;20443;-85
2023/07/30 09:22:29;;;;;;;20.27;4.07;;;20.80;99.90;;;;;;5103870;27;20463;-82
2023/07/30 09:24:57;;;;;;;21.77;4.57;;;20.70;99.90;;;;;;5139349;27;20137;-80
2023/07/30 09:27:26;;;;;;;15.10;3.75;;;20.40;99.90;;;;;;5086977;27;20082;-81
2023/07/30 09:29:53;;;;;;;21.73;3.67;;;20.10;99.90;;;;;;5138747;27;20035;-79
2023/07/30 09:32:20;;;;;;;14.52;3.35;;;19.80;99.90;;;;;;5121716;27;20042;-81
2023/07/30 09:34:49;;;;;;;18.02;4.15;;;19.50;99.90;;;;;;5105149;27;20043;-81
2023/07/30 09:37:15;;;;;;;18.80;4.20;;;19.30;99.90;;;;;;5137466;27;20050;-80
2023/07/30 09:39:41;;;;;;;22.15;4.72;;;19.10;99.90;;;;;;5138767;27;20043;-82
2023/07/30 09:42:07;;;;;;;17.77;4.43;;;18.90;99.90;;;;;;5139112;27;20151;-81
2023/07/30 09:44:33;;;;;;;19.00;4.40;;;18.80;99.90;;;;;;5155766;27;20111;-80
2023/07/30 09:47:04;;;;;;;20.98;4.55;;;18.80;99.90;;;;;;5131805;27;20031;-81
2023/07/30 09:49:31;;;;;;;20.80;4.38;;;18.70;99.90;;;;;;5137020;27;20054;-79
2023/07/30 09:51:58;;;;;;;17.58;4.55;;;18.70;99.90;;;;;;5120268;27;20035;-79
2023/07/30 09:54:24;;;;;;;14.25;4.28;;;18.90;99.90;;;;;;5137495;27;20049;-79
2023/07/30 09:56:50;;;;;;;13.27;3.20;;;19.20;99.90;;;;;;5154553;27;20118;-81
2023/07/30 09:59:15;;;;;;;15.30;3.00;;;19.50;99.90;;;;;;5138478;27;20046;-78
2023/07/30 10:01:44;;;;;;;19.73;3.17;;;19.90;99.90;;;;;;5120292;27;20039;-80
2023/07/30 10:04:10;;;;;;;15.23;3.17;;;20.20;99.90;;;;;;5121382;27;20116;-82
2023/07/30 10:06:42;;;;;;;15.10;2.88;;;20.50;99.90;;;;;;5120262;27;20095;-81
2023/07/30 10:09:10;;;;;;;15.18;2.42;;;20.80;99.90;;;;;;5139406;27;20039;-80
2023/07/30 10:11:37;;;;;;;15.40;2.55;;;21.00;99.90;;;;;;5121150;27;20486;-81
2023/07/30 10:14:04;;;;;;;13.35;2.45;;;20.90;99.90;;;;;;5121201;27;20053;-77
2023/07/30 10:16:31;;;;;;;;;;;20.80;99.90;;;;;;5104863;27;20066;-81
2023/07/30 10:18:58;;;;;;;11.85;1.65;;;20.50;99.90;;;;;;5106263;27;19979;-83
2023/07/30 10:21:26;;;;;;;11.70;2.28;;;20.40;99.90;;;;;;5158159;27;20351;-80
2023/07/30 10:24:00;;;;;;;13.98;2.25;;;20.20;99.90;;;;;;5126968;27;20094;-80
2023/07/30 10:26:31;;;;;;;10.82;2.22;;;20.00;99.90;;;;;;5107036;27;20046;-80
2023/07/30 10:29:18;;;;;;;13.98;2.40;;;19.70;99.90;;;;;;5139365;27;20050;-80
2023/07/30 10:31:48;;;;;;;13.93;2.90;;;19.50;99.90;;;;;;5102982;27;20108;-77
2023/07/30 10:34:15;;;;;;;16.15;2.78;;;19.10;99.90;;;;;;5137836;27;20451;-77
2023/07/30 10:36:43;;;;;;;10.57;2.40;;;18.70;99.90;;;;;;5119007;27;20042;-78
2023/07/30 10:39:25;;;;;;;17.98;2.92;;;18.50;99.90;;;;;;5118978;27;20505;-80
2023/07/30 10:41:55;;;;;;;8.52;2.20;;;18.50;99.90;;;;;;5119172;27;20039;-79
2023/07/30 10:44:26;;;;;;;14.52;2.40;;;18.60;99.90;;;;;;5101567;27;20119;-79
2023/07/30 10:46:57;;;;;;;11.77;2.35;;;18.80;99.90;;;;;;5137929;27;20478;-78
2023/07/30 10:49:23;;;;;;;14.85;1.98;;;18.90;99.90;;;;;;5108594;27;20047;-79
2023/07/30 10:51:50;;;;;;;16.08;1.90;;;19.10;99.90;;;;;;5130561;27;20035;-80
2023/07/30 10:54:16;;;;;;;15.57;1.90;;;19.40;99.90;;;;;;5155918;27;20063;-79
2023/07/30 10:56:42;;;;;;;15.33;2.10;;;19.90;99.90;;;;;;5148664;27;20043;-81
2023/07/30 10:59:09;;;;;;;11.73;1.58;;;20.30;99.90;;;;;;5138853;27;20039;-80
2023/07/30 11:01:43;;;;;;;10.52;2.00;;;20.30;99.90;;;;;;5135648;27;20175;-80
2023/07/30 11:04:15;;;;;;;10.98;1.67;;;20.20;99.90;;;;;;5119216;27;20039;-79
2023/07/30 11:06:47;;;;;;;11.85;1.83;;;20.20;99.90;;;;;;5134579;27;20122;-77
2023/07/30 11:09:26;;;;;;;13.63;2.17;;;20.30;99.90;;;;;;5117501;27;20215;-79
2023/07/30 11:11:55;;;;;;;8.32;1.27;;;20.30;99.90;;;;;;5117903;27;20035;-78
2023/07/30 11:14:25;;;;;;;14.25;1.80;;;20.40;99.90;;;;;;5117625;27;20069;-78
2023/07/30 11:16:53;;;;;;;15.40;1.85;;;20.50;99.90;;;;;;5117884;27;20046;-79
2023/07/30 11:19:19;;;;;;;11.57;1.38;;;20.40;99.90;;;;;;5136401;27;20395;-78
2023/07/30 11:21:49;;;;;;;11.68;1.35;;;20.30;99.90;;;;;;5136430;27;20430;-80
2023/07/30 11:24:15;;;;;;;7.82;1.10;;;20.40;99.90;;;;;;5118171;27;20077;-81
2023/07/30 11:26:58;;;;;;;7.68;1.20;;;20.50;99.90;;;;;;5090829;27;20397;-76
2023/07/30 11:29:24;;;;;;;4.55;0.75;;;20.70;99.90;;;;;;5090254;28;20070;-79
2023/07/30 11:31:49;;;;;;;10.07;1.10;;;20.70;99.90;;;;;;5090089;28;20040;-78
2023/07/30 11:34:16;;;;;;;7.23;1.17;;;20.70;99.90;;;;;;5090711;28;20094;-79
2023/07/30 11:36:43;;;;;;;8.35;0.80;;;20.70;99.90;;;;;;5072055;28;20054;-81
2023/07/30 11:39:09;;;;;;;12.30;1.08;;;20.80;99.90;;;;;;5089716;28;20090;-81
2023/07/30 11:41:36;;;;;;;;;;;20.80;99.90;;;;;;5089956;28;20102;-78
2023/07/30 11:44:02;;;;;;;11.75;1.23;;;20.90;99.90;;;;;;5088914;28;20003;-81
2023/07/30 11:46:29;;;;;;;14.10;1.40;;;20.90;99.90;;;;;;5089026;28;20457;-80
2023/07/30 11:49:14;;;;;;;11.82;1.30;;;21.00;99.90;;;;;;5089270;28;20048;-80
2023/07/30 11:51:41;;;;;;;11.10;1.10;;;21.10;99.90;;;;;;5090406;28;20040;-79
2023/07/30 11:54:07;;;;;;;12.63;1.20;;;21.20;99.90;;;;;;5089245;28;20040;-82
2023/07/30 11:56:34;;;;;;;11.98;1.52;;;21.30;99.90;;;;;;5072150;28;20040;-79
2023/07/30 11:59:07;;;;;;;8.57;1.00;;;21.30;99.90;;;;;;5089916;28;20127;-80
2023/07/30 12:01:36;;;;;;;10.13;1.10;;;21.30;99.90;;;;;;5108209;28;20067;-82
2023/07/30 12:04:05;;;;;;;9.52;1.00;;;21.50;99.90;;;;;;5098846;28;20045;-78
2023/07/30 12:06:44;;;;;;;14.63;1.48;;;21.60;99.90;;;;;;5091089;28;20052;-79
2023/07/30 12:09:10;;;;;;;10.65;0.90;;;21.60;99.90;;;;;;5090599;28;20040;-81
2023/07/30 12:11:47;;;;;;;10.43;1.38;;;21.60;99.90;;;;;;5089203;28;20040;-79
2023/07/30 12:14:12;;;;;;;11.57;1.10;;;21.70;99.90;;;;;;5088953;28;20048;-81
2023/07/30 12:16:38;;;;;;;7.20;0.87;;;21.80;99.90;;;;;;5089475;28;20036;-79
2023/07/30 12:19:04;;;;;;;8.10;1.03;;;21.70;99.90;;;;;;5072326;28;20488;-81
2023/07/30 12:21:30;;;;;;;9.03;0.90;;;21.80;99.90;;;;;;5090021;28;20045;-80
2023/07/30 12:23:55;;;;;;;9.93;1.37;;;22.00;99.90;;;;;;5089439;28;20453;-81
2023/07/30 12:26:21;;;;;;;11.27;1.00;;;22.10;99.90;;;;;;5088950;28;20380;-81
2023/07/30 12:28:47;;;;;;;6.73;0.70;;;21.80;99.90;;;;;;5048414;28;20048;-82
2023/07/30 12:31:13;;;;;;;9.60;0.83;;;21.80;99.90;;;;;;5084891;28;20044;-79
2023/07/30 12:33:38;;;;;;;9.60;1.07;;;21.90;99.90;;;;;;5082720;28;20052;-81
2023/07/30 12:36:05;;;;;;;8.67;0.90;;;21.90;99.90;;;;;;5068843;28;20127;-80